sensor_id;sensor_type;location;lat;lon;timestamp;P1;durP1;ratioP1;P2;durP2;ratioP2
3259;SDS011;68938;48.150;14.004;2023-06-14T00:02:23;4.50;;;4.13;;
3259;SDS011;68938;48.150;14.004;2023-06-14T00:04:50;5.53;;;5.03;;
3259;SDS011;68938;48.150;14.004;2023-06-14T00:07:17;5.37;;;4.97;;
3259;SDS011;68938;48.150;14.004;2023-06-14T00:09:44;5.00;;;4.70;;
3259;SDS011;68938;48.150;14.004;2023-06-14T00:12:11;6.30;;;5.70;;
3259;SDS011;68938;48.150;14.004;2023-06-14T00:14:38;5.77;;;5.37;;
3259;SDS011;68938;48.150;14.004;2023-06-14T00:17:05;5.70;;;5.30;;
3259;SDS011;68938;48.150;14.004;2023-06-14T00:19:32;5.60;;;5.20;;
3259;SDS011;68938;48.150;14.004;2023-06-14T00:21:59;6.13;;;5.63;;
3259;SDS011;68938;48.150;14.004;2023-06-14T00:24:26;5.03;;;4.70;;
3259;SDS011;68938;48.150;14.004;2023-06-14T00:26:53;5.23;;;4.93;;
3259;SDS011;68938;48.150;14.004;2023-06-14T00:29:20;6.13;;;5.63;;
3259;SDS011;68938;48.150;14.004;2023-06-14T00:31:47;5.13;;;4.70;;
3259;SDS011;68938;48.150;14.004;2023-06-14T00:34:14;5.67;;;5.17;;
3259;SDS011;68938;48.150;14.004;2023-06-14T00:36:41;5.63;;;5.13;;
3259;SDS011;68938;48.150;14.004;2023-06-14T00:39:07;6.13;;;5.53;;
3259;SDS011;68938;48.150;14.004;2023-06-14T00:41:34;6.10;;;5.50;;
3259;SDS011;68938;48.150;14.004;2023-06-14T00:44:01;5.20;;;4.80;;
3259;SDS011;68938;48.150;14.004;2023-06-14T00:46:29;5.10;;;4.60;;
3259;SDS011;68938;48.150;14.004;2023-06-14T00:48:56;5.20;;;4.80;;
3259;SDS011;68938;48.150;14.004;2023-06-14T00:51:26;5.17;;;4.87;;
3259;SDS011;68938;48.150;14.004;2023-06-14T00:53:54;5.70;;;5.20;;
3259;SDS011;68938;48.150;14.004;2023-06-14T00:56:21;4.87;;;4.50;;
3259;SDS011;68938;48.150;14.004;2023-06-14T00:58:48;6.10;;;5.60;;
3259;SDS011;68938;48.150;14.004;2023-06-14T01:01:15;6.23;;;5.30;;
3259;SDS011;68938;48.150;14.004;2023-06-14T01:03:43;5.87;;;5.43;;
3259;SDS011;68938;48.150;14.004;2023-06-14T01:06:23;5.00;;;4.60;;
3259;SDS011;68938;48.150;14.004;2023-06-14T01:09:03;5.57;;;5.17;;
3259;SDS011;68938;48.150;14.004;2023-06-14T01:12:00;5.60;;;5.13;;
3259;SDS011;68938;48.150;14.004;2023-06-14T01:14:42;7.70;;;5.17;;
3259;SDS011;68938;48.150;14.004;2023-06-14T01:17:09;5.47;;;5.00;;
3259;SDS011;68938;48.150;14.004;2023-06-14T01:19:37;6.23;;;5.73;;
3259;SDS011;68938;48.150;14.004;2023-06-14T01:22:04;6.13;;;5.73;;
3259;SDS011;68938;48.150;14.004;2023-06-14T01:24:31;5.97;;;5.47;;
3259;SDS011;68938;48.150;14.004;2023-06-14T01:26:58;7.00;;;6.43;;
3259;SDS011;68938;48.150;14.004;2023-06-14T01:29:26;6.37;;;5.93;;
3259;SDS011;68938;48.150;14.004;2023-06-14T01:31:54;7.43;;;6.00;;
3259;SDS011;68938;48.150;14.004;2023-06-14T01:34:21;6.20;;;5.60;;
3259;SDS011;68938;48.150;14.004;2023-06-14T01:36:48;7.30;;;5.90;;
3259;SDS011;68938;48.150;14.004;2023-06-14T01:39:16;6.07;;;5.43;;
3259;SDS011;68938;48.150;14.004;2023-06-14T01:41:44;6.67;;;6.27;;
3259;SDS011;68938;48.150;14.004;2023-06-14T01:44:13;7.70;;;6.97;;
3259;SDS011;68938;48.150;14.004;2023-06-14T01:46:42;7.00;;;6.27;;
3259;SDS011;68938;48.150;14.004;2023-06-14T01:49:10;7.00;;;6.30;;
3259;SDS011;68938;48.150;14.004;2023-06-14T01:51:38;10.30;;;5.70;;
3259;SDS011;68938;48.150;14.004;2023-06-14T01:54:05;6.30;;;5.77;;
3259;SDS011;68938;48.150;14.004;2023-06-14T01:56:31;6.00;;;5.57;;
3259;SDS011;68938;48.150;14.004;2023-06-14T01:58:58;7.03;;;6.53;;
3259;SDS011;68938;48.150;14.004;2023-06-14T02:01:25;6.53;;;6.03;;
3259;SDS011;68938;48.150;14.004;2023-06-14T02:03:52;6.27;;;5.80;;
3259;SDS011;68938;48.150;14.004;2023-06-14T02:06:19;7.00;;;6.27;;
3259;SDS011;68938;48.150;14.004;2023-06-14T02:08:46;6.80;;;6.30;;
3259;SDS011;68938;48.150;14.004;2023-06-14T02:11:13;5.90;;;5.50;;
3259;SDS011;68938;48.150;14.004;2023-06-14T02:13:40;7.00;;;6.30;;
3259;SDS011;68938;48.150;14.004;2023-06-14T02:16:06;6.17;;;5.67;;
3259;SDS011;68938;48.150;14.004;2023-06-14T02:18:34;6.10;;;5.70;;
3259;SDS011;68938;48.150;14.004;2023-06-14T02:21:00;6.43;;;5.87;;
3259;SDS011;68938;48.150;14.004;2023-06-14T02:23:27;8.60;;;6.57;;
3259;SDS011;68938;48.150;14.004;2023-06-14T02:25:54;5.80;;;5.30;;
3259;SDS011;68938;48.150;14.004;2023-06-14T02:28:21;7.00;;;5.90;;
3259;SDS011;68938;48.150;14.004;2023-06-14T02:30:48;5.70;;;5.30;;
3259;SDS011;68938;48.150;14.004;2023-06-14T02:33:15;6.20;;;5.33;;
3259;SDS011;68938;48.150;14.004;2023-06-14T02:35:42;8.40;;;5.50;;
3259;SDS011;68938;48.150;14.004;2023-06-14T02:38:09;5.80;;;5.27;;
3259;SDS011;68938;48.150;14.004;2023-06-14T02:40:36;5.23;;;4.93;;
3259;SDS011;68938;48.150;14.004;2023-06-14T02:43:02;6.10;;;5.57;;
3259;SDS011;68938;48.150;14.004;2023-06-14T02:45:29;6.77;;;6.20;;
3259;SDS011;68938;48.150;14.004;2023-06-14T02:47:56;6.57;;;6.07;;
3259;SDS011;68938;48.150;14.004;2023-06-14T02:50:23;6.80;;;6.20;;
3259;SDS011;68938;48.150;14.004;2023-06-14T02:52:50;6.73;;;6.20;;
3259;SDS011;68938;48.150;14.004;2023-06-14T02:55:17;6.20;;;5.50;;
3259;SDS011;68938;48.150;14.004;2023-06-14T02:57:44;6.70;;;6.20;;
3259;SDS011;68938;48.150;14.004;2023-06-14T03:00:11;6.27;;;5.67;;
3259;SDS011;68938;48.150;14.004;2023-06-14T03:02:39;6.37;;;5.77;;
3259;SDS011;68938;48.150;14.004;2023-06-14T03:05:06;6.87;;;6.30;;
3259;SDS011;68938;48.150;14.004;2023-06-14T03:07:33;6.30;;;5.70;;
3259;SDS011;68938;48.150;14.004;2023-06-14T03:10:00;6.67;;;6.17;;
3259;SDS011;68938;48.150;14.004;2023-06-14T03:12:27;7.00;;;6.40;;
3259;SDS011;68938;48.150;14.004;2023-06-14T03:14:54;6.43;;;5.83;;
3259;SDS011;68938;48.150;14.004;2023-06-14T03:17:21;7.30;;;6.10;;
3259;SDS011;68938;48.150;14.004;2023-06-14T03:19:48;6.50;;;5.80;;
3259;SDS011;68938;48.150;14.004;2023-06-14T03:22:15;5.57;;;5.17;;
3259;SDS011;68938;48.150;14.004;2023-06-14T03:24:42;6.80;;;6.30;;
3259;SDS011;68938;48.150;14.004;2023-06-14T03:27:09;6.47;;;5.90;;
3259;SDS011;68938;48.150;14.004;2023-06-14T03:29:36;7.20;;;6.50;;
3259;SDS011;68938;48.150;14.004;2023-06-14T03:32:03;7.27;;;6.60;;
3259;SDS011;68938;48.150;14.004;2023-06-14T03:34:30;6.97;;;6.30;;
3259;SDS011;68938;48.150;14.004;2023-06-14T03:36:57;6.20;;;5.67;;
3259;SDS011;68938;48.150;14.004;2023-06-14T03:39:24;6.67;;;6.07;;
3259;SDS011;68938;48.150;14.004;2023-06-14T03:41:51;6.37;;;5.87;;
3259;SDS011;68938;48.150;14.004;2023-06-14T03:44:18;7.70;;;7.00;;
3259;SDS011;68938;48.150;14.004;2023-06-14T03:46:45;6.47;;;5.87;;
3259;SDS011;68938;48.150;14.004;2023-06-14T03:49:13;7.50;;;6.80;;
3259;SDS011;68938;48.150;14.004;2023-06-14T03:51:40;7.57;;;6.97;;
3259;SDS011;68938;48.150;14.004;2023-06-14T03:54:07;6.37;;;5.87;;
3259;SDS011;68938;48.150;14.004;2023-06-14T03:56:38;8.07;;;7.10;;
3259;SDS011;68938;48.150;14.004;2023-06-14T03:59:04;7.67;;;6.83;;
3259;SDS011;68938;48.150;14.004;2023-06-14T04:01:31;7.50;;;6.80;;
3259;SDS011;68938;48.150;14.004;2023-06-14T04:03:58;8.30;;;7.50;;
3259;SDS011;68938;48.150;14.004;2023-06-14T04:06:26;7.33;;;6.63;;
3259;SDS011;68938;48.150;14.004;2023-06-14T04:08:53;8.83;;;8.03;;
3259;SDS011;68938;48.150;14.004;2023-06-14T04:11:20;9.90;;;7.10;;
3259;SDS011;68938;48.150;14.004;2023-06-14T04:13:47;8.03;;;6.60;;
3259;SDS011;68938;48.150;14.004;2023-06-14T04:16:14;9.23;;;7.00;;
3259;SDS011;68938;48.150;14.004;2023-06-14T04:18:41;8.20;;;7.30;;
3259;SDS011;68938;48.150;14.004;2023-06-14T04:21:07;8.20;;;7.50;;
3259;SDS011;68938;48.150;14.004;2023-06-14T04:23:34;7.63;;;6.93;;
3259;SDS011;68938;48.150;14.004;2023-06-14T04:26:01;8.30;;;7.47;;
3259;SDS011;68938;48.150;14.004;2023-06-14T04:28:28;7.53;;;6.77;;
3259;SDS011;68938;48.150;14.004;2023-06-14T04:30:55;8.80;;;7.30;;
3259;SDS011;68938;48.150;14.004;2023-06-14T04:33:22;9.27;;;7.73;;
3259;SDS011;68938;48.150;14.004;2023-06-14T04:35:49;8.40;;;7.70;;
3259;SDS011;68938;48.150;14.004;2023-06-14T04:38:19;9.90;;;7.47;;
3259;SDS011;68938;48.150;14.004;2023-06-14T04:40:46;7.90;;;7.20;;
3259;SDS011;68938;48.150;14.004;2023-06-14T04:43:25;8.70;;;7.50;;
3259;SDS011;68938;48.150;14.004;2023-06-14T04:45:52;7.73;;;7.03;;
3259;SDS011;68938;48.150;14.004;2023-06-14T04:48:20;8.47;;;7.67;;
3259;SDS011;68938;48.150;14.004;2023-06-14T04:50:48;8.70;;;8.00;;
3259;SDS011;68938;48.150;14.004;2023-06-14T04:53:15;8.03;;;7.30;;
3259;SDS011;68938;48.150;14.004;2023-06-14T04:55:42;9.67;;;8.47;;
3259;SDS011;68938;48.150;14.004;2023-06-14T04:58:09;8.50;;;7.80;;
3259;SDS011;68938;48.150;14.004;2023-06-14T05:00:36;8.57;;;7.20;;
3259;SDS011;68938;48.150;14.004;2023-06-14T05:03:03;8.33;;;7.50;;
3259;SDS011;68938;48.150;14.004;2023-06-14T05:05:30;6.90;;;6.40;;
3259;SDS011;68938;48.150;14.004;2023-06-14T05:07:57;7.70;;;6.83;;
3259;SDS011;68938;48.150;14.004;2023-06-14T05:10:24;7.93;;;7.23;;
3259;SDS011;68938;48.150;14.004;2023-06-14T05:12:51;7.20;;;6.60;;
3259;SDS011;68938;48.150;14.004;2023-06-14T05:15:18;8.10;;;7.30;;
3259;SDS011;68938;48.150;14.004;2023-06-14T05:17:45;7.90;;;7.30;;
3259;SDS011;68938;48.150;14.004;2023-06-14T05:20:12;8.70;;;7.90;;
3259;SDS011;68938;48.150;14.004;2023-06-14T05:22:39;9.03;;;8.23;;
3259;SDS011;68938;48.150;14.004;2023-06-14T05:25:06;7.90;;;7.20;;
3259;SDS011;68938;48.150;14.004;2023-06-14T05:27:34;8.17;;;7.57;;
3259;SDS011;68938;48.150;14.004;2023-06-14T05:30:01;9.00;;;8.10;;
3259;SDS011;68938;48.150;14.004;2023-06-14T05:32:28;8.17;;;7.47;;
3259;SDS011;68938;48.150;14.004;2023-06-14T05:34:55;8.10;;;7.30;;
3259;SDS011;68938;48.150;14.004;2023-06-14T05:37:22;7.90;;;7.20;;
3259;SDS011;68938;48.150;14.004;2023-06-14T05:39:48;8.93;;;8.03;;
3259;SDS011;68938;48.150;14.004;2023-06-14T05:42:15;10.63;;;7.70;;
3259;SDS011;68938;48.150;14.004;2023-06-14T05:44:42;8.70;;;8.00;;
3259;SDS011;68938;48.150;14.004;2023-06-14T05:47:09;9.77;;;7.97;;
3259;SDS011;68938;48.150;14.004;2023-06-14T05:49:36;8.20;;;7.60;;
3259;SDS011;68938;48.150;14.004;2023-06-14T05:52:03;10.17;;;7.57;;
3259;SDS011;68938;48.150;14.004;2023-06-14T05:54:30;8.77;;;7.50;;
3259;SDS011;68938;48.150;14.004;2023-06-14T05:56:57;9.20;;;8.27;;
3259;SDS011;68938;48.150;14.004;2023-06-14T05:59:24;7.73;;;7.00;;
3259;SDS011;68938;48.150;14.004;2023-06-14T06:01:51;8.50;;;7.40;;
3259;SDS011;68938;48.150;14.004;2023-06-14T06:04:18;8.27;;;7.47;;
3259;SDS011;68938;48.150;14.004;2023-06-14T06:06:45;7.53;;;6.77;;
3259;SDS011;68938;48.150;14.004;2023-06-14T06:09:12;7.63;;;7.03;;
3259;SDS011;68938;48.150;14.004;2023-06-14T06:11:39;7.93;;;7.20;;
3259;SDS011;68938;48.150;14.004;2023-06-14T06:14:18;7.17;;;6.60;;
3259;SDS011;68938;48.150;14.004;2023-06-14T06:16:45;7.80;;;7.13;;
3259;SDS011;68938;48.150;14.004;2023-06-14T06:19:12;8.50;;;7.57;;
3259;SDS011;68938;48.150;14.004;2023-06-14T06:21:39;8.77;;;7.50;;
3259;SDS011;68938;48.150;14.004;2023-06-14T06:24:06;18.90;;;7.23;;
3259;SDS011;68938;48.150;14.004;2023-06-14T06:26:33;7.17;;;6.47;;
3259;SDS011;68938;48.150;14.004;2023-06-14T06:29:00;7.87;;;6.30;;
3259;SDS011;68938;48.150;14.004;2023-06-14T06:31:27;8.10;;;6.93;;
3259;SDS011;68938;48.150;14.004;2023-06-14T06:33:54;6.70;;;6.20;;
3259;SDS011;68938;48.150;14.004;2023-06-14T06:36:21;7.20;;;6.60;;
3259;SDS011;68938;48.150;14.004;2023-06-14T06:38:49;7.33;;;6.63;;
3259;SDS011;68938;48.150;14.004;2023-06-14T06:41:18;6.70;;;6.10;;
3259;SDS011;68938;48.150;14.004;2023-06-14T06:43:45;6.60;;;6.10;;
3259;SDS011;68938;48.150;14.004;2023-06-14T06:46:12;8.37;;;7.13;;
3259;SDS011;68938;48.150;14.004;2023-06-14T06:48:39;7.00;;;6.40;;
3259;SDS011;68938;48.150;14.004;2023-06-14T06:51:06;7.37;;;6.80;;
3259;SDS011;68938;48.150;14.004;2023-06-14T06:53:33;7.83;;;7.23;;
3259;SDS011;68938;48.150;14.004;2023-06-14T06:56:10;7.20;;;6.70;;
3259;SDS011;68938;48.150;14.004;2023-06-14T06:58:37;6.77;;;6.37;;
3259;SDS011;68938;48.150;14.004;2023-06-14T07:01:04;6.87;;;6.20;;
3259;SDS011;68938;48.150;14.004;2023-06-14T07:03:31;9.10;;;6.77;;
3259;SDS011;68938;48.150;14.004;2023-06-14T07:05:58;6.07;;;5.60;;
3259;SDS011;68938;48.150;14.004;2023-06-14T07:08:25;7.20;;;6.40;;
3259;SDS011;68938;48.150;14.004;2023-06-14T07:10:52;6.20;;;5.70;;
3259;SDS011;68938;48.150;14.004;2023-06-14T07:13:19;6.63;;;6.03;;
3259;SDS011;68938;48.150;14.004;2023-06-14T07:15:46;6.37;;;5.77;;
3259;SDS011;68938;48.150;14.004;2023-06-14T07:18:13;6.93;;;6.40;;
3259;SDS011;68938;48.150;14.004;2023-06-14T07:20:42;8.20;;;6.60;;
3259;SDS011;68938;48.150;14.004;2023-06-14T07:23:09;6.83;;;5.70;;
3259;SDS011;68938;48.150;14.004;2023-06-14T07:25:36;5.97;;;5.57;;
3259;SDS011;68938;48.150;14.004;2023-06-14T07:28:03;5.13;;;4.73;;
3259;SDS011;68938;48.150;14.004;2023-06-14T07:30:30;6.27;;;5.70;;
3259;SDS011;68938;48.150;14.004;2023-06-14T07:32:57;8.63;;;5.83;;
3259;SDS011;68938;48.150;14.004;2023-06-14T07:35:23;7.23;;;5.23;;
3259;SDS011;68938;48.150;14.004;2023-06-14T07:37:50;7.03;;;6.53;;
3259;SDS011;68938;48.150;14.004;2023-06-14T07:40:17;6.67;;;6.17;;
3259;SDS011;68938;48.150;14.004;2023-06-14T07:42:44;6.90;;;6.40;;
3259;SDS011;68938;48.150;14.004;2023-06-14T07:45:13;6.60;;;6.00;;
3259;SDS011;68938;48.150;14.004;2023-06-14T07:47:41;6.30;;;5.90;;
3259;SDS011;68938;48.150;14.004;2023-06-14T07:50:08;6.10;;;5.60;;
3259;SDS011;68938;48.150;14.004;2023-06-14T07:52:36;6.67;;;6.07;;
3259;SDS011;68938;48.150;14.004;2023-06-14T07:55:03;7.13;;;6.20;;
3259;SDS011;68938;48.150;14.004;2023-06-14T07:57:30;6.97;;;6.27;;
3259;SDS011;68938;48.150;14.004;2023-06-14T07:59:57;8.07;;;5.77;;
3259;SDS011;68938;48.150;14.004;2023-06-14T08:02:24;6.10;;;5.40;;
3259;SDS011;68938;48.150;14.004;2023-06-14T08:04:52;6.00;;;5.50;;
3259;SDS011;68938;48.150;14.004;2023-06-14T08:07:19;7.13;;;6.47;;
3259;SDS011;68938;48.150;14.004;2023-06-14T08:09:45;6.93;;;5.87;;
3259;SDS011;68938;48.150;14.004;2023-06-14T08:12:12;11.73;;;5.83;;
3259;SDS011;68938;48.150;14.004;2023-06-14T08:14:39;7.00;;;6.50;;
3259;SDS011;68938;48.150;14.004;2023-06-14T08:17:08;9.17;;;7.13;;
3259;SDS011;68938;48.150;14.004;2023-06-14T08:19:35;6.83;;;6.23;;
3259;SDS011;68938;48.150;14.004;2023-06-14T08:22:02;6.40;;;5.90;;
3259;SDS011;68938;48.150;14.004;2023-06-14T08:24:29;6.37;;;5.77;;
3259;SDS011;68938;48.150;14.004;2023-06-14T08:26:56;5.30;;;4.80;;
3259;SDS011;68938;48.150;14.004;2023-06-14T08:29:23;7.00;;;6.50;;
3259;SDS011;68938;48.150;14.004;2023-06-14T08:31:50;7.00;;;6.23;;
3259;SDS011;68938;48.150;14.004;2023-06-14T08:34:17;6.27;;;5.90;;
3259;SDS011;68938;48.150;14.004;2023-06-14T08:36:44;5.63;;;5.23;;
3259;SDS011;68938;48.150;14.004;2023-06-14T08:39:11;7.10;;;6.50;;
3259;SDS011;68938;48.150;14.004;2023-06-14T08:41:38;6.70;;;6.10;;
3259;SDS011;68938;48.150;14.004;2023-06-14T08:44:05;6.20;;;5.60;;
3259;SDS011;68938;48.150;14.004;2023-06-14T08:46:32;6.20;;;5.80;;
3259;SDS011;68938;48.150;14.004;2023-06-14T08:49:00;5.80;;;5.40;;
3259;SDS011;68938;48.150;14.004;2023-06-14T08:51:28;6.63;;;6.10;;
3259;SDS011;68938;48.150;14.004;2023-06-14T08:53:58;6.00;;;5.50;;
3259;SDS011;68938;48.150;14.004;2023-06-14T08:56:25;6.27;;;5.77;;
3259;SDS011;68938;48.150;14.004;2023-06-14T08:58:54;5.77;;;5.37;;
3259;SDS011;68938;48.150;14.004;2023-06-14T09:01:25;5.73;;;5.23;;
3259;SDS011;68938;48.150;14.004;2023-06-14T09:03:52;6.77;;;6.17;;
3259;SDS011;68938;48.150;14.004;2023-06-14T09:06:19;6.77;;;5.80;;
3259;SDS011;68938;48.150;14.004;2023-06-14T09:08:47;5.87;;;5.33;;
3259;SDS011;68938;48.150;14.004;2023-06-14T09:11:15;5.00;;;4.70;;
3259;SDS011;68938;48.150;14.004;2023-06-14T09:13:45;7.90;;;4.80;;
3259;SDS011;68938;48.150;14.004;2023-06-14T09:16:13;7.53;;;4.57;;
3259;SDS011;68938;48.150;14.004;2023-06-14T09:18:42;6.00;;;5.50;;
3259;SDS011;68938;48.150;14.004;2023-06-14T09:21:11;4.57;;;4.27;;
3259;SDS011;68938;48.150;14.004;2023-06-14T09:23:42;5.60;;;5.20;;
3259;SDS011;68938;48.150;14.004;2023-06-14T09:26:15;5.90;;;5.40;;
3259;SDS011;68938;48.150;14.004;2023-06-14T09:28:46;4.73;;;4.53;;
3259;SDS011;68938;48.150;14.004;2023-06-14T09:31:17;5.33;;;4.87;;
3259;SDS011;68938;48.150;14.004;2023-06-14T09:33:46;5.67;;;5.17;;
3259;SDS011;68938;48.150;14.004;2023-06-14T09:39:00;5.10;;;4.77;;
3259;SDS011;68938;48.150;14.004;2023-06-14T09:44:09;5.00;;;4.60;;
3259;SDS011;68938;48.150;14.004;2023-06-14T09:46:45;4.73;;;4.33;;
3259;SDS011;68938;48.150;14.004;2023-06-14T09:49:13;5.20;;;4.50;;
3259;SDS011;68938;48.150;14.004;2023-06-14T09:51:43;4.03;;;3.73;;
3259;SDS011;68938;48.150;14.004;2023-06-14T09:54:14;4.50;;;4.20;;
3259;SDS011;68938;48.150;14.004;2023-06-14T09:56:47;4.67;;;4.10;;
3259;SDS011;68938;48.150;14.004;2023-06-14T09:59:14;4.40;;;4.20;;
3259;SDS011;68938;48.150;14.004;2023-06-14T10:01:46;4.50;;;4.20;;
3259;SDS011;68938;48.150;14.004;2023-06-14T10:04:15;4.77;;;4.47;;
3259;SDS011;68938;48.150;14.004;2023-06-14T10:06:45;4.00;;;3.70;;
3259;SDS011;68938;48.150;14.004;2023-06-14T10:09:15;5.50;;;4.50;;
3259;SDS011;68938;48.150;14.004;2023-06-14T10:11:42;4.30;;;3.80;;
3259;SDS011;68938;48.150;14.004;2023-06-14T10:14:10;4.37;;;4.07;;
3259;SDS011;68938;48.150;14.004;2023-06-14T10:16:41;4.23;;;3.93;;
3259;SDS011;68938;48.150;14.004;2023-06-14T10:19:18;4.53;;;4.23;;
3259;SDS011;68938;48.150;14.004;2023-06-14T10:21:58;4.30;;;4.10;;
3259;SDS011;68938;48.150;14.004;2023-06-14T10:24:45;4.60;;;4.20;;
3259;SDS011;68938;48.150;14.004;2023-06-14T10:27:13;4.43;;;4.13;;
3259;SDS011;68938;48.150;14.004;2023-06-14T10:32:22;4.30;;;4.00;;
3259;SDS011;68938;48.150;14.004;2023-06-14T10:34:55;5.33;;;4.47;;
3259;SDS011;68938;48.150;14.004;2023-06-14T10:37:35;3.90;;;3.67;;
3259;SDS011;68938;48.150;14.004;2023-06-14T10:40:03;4.90;;;3.87;;
3259;SDS011;68938;48.150;14.004;2023-06-14T10:42:32;4.13;;;3.70;;
3259;SDS011;68938;48.150;14.004;2023-06-14T10:44:59;3.80;;;3.60;;
3259;SDS011;68938;48.150;14.004;2023-06-14T10:52:29;4.23;;;4.00;;
3259;SDS011;68938;48.150;14.004;2023-06-14T10:55:06;3.90;;;3.60;;
3259;SDS011;68938;48.150;14.004;2023-06-14T10:57:39;7.17;;;3.77;;
3259;SDS011;68938;48.150;14.004;2023-06-14T11:00:20;4.23;;;3.93;;
3259;SDS011;68938;48.150;14.004;2023-06-14T11:03:20;3.90;;;3.70;;
3259;SDS011;68938;48.150;14.004;2023-06-14T11:06:17;4.20;;;3.90;;
3259;SDS011;68938;48.150;14.004;2023-06-14T11:11:54;5.37;;;3.97;;
3259;SDS011;68938;48.150;14.004;2023-06-14T11:29:36;4.00;;;3.67;;
3259;SDS011;68938;48.150;14.004;2023-06-14T11:32:06;4.00;;;3.60;;
3259;SDS011;68938;48.150;14.004;2023-06-14T11:34:34;3.75;;;3.45;;
3259;SDS011;68938;48.150;14.004;2023-06-14T11:37:01;3.53;;;3.30;;
3259;SDS011;68938;48.150;14.004;2023-06-14T11:39:28;4.90;;;3.50;;
3259;SDS011;68938;48.150;14.004;2023-06-14T11:41:55;4.43;;;3.33;;
3259;SDS011;68938;48.150;14.004;2023-06-14T11:44:22;3.97;;;3.67;;
3259;SDS011;68938;48.150;14.004;2023-06-14T11:46:48;8.50;;;3.70;;
3259;SDS011;68938;48.150;14.004;2023-06-14T11:49:15;5.60;;;3.40;;
3259;SDS011;68938;48.150;14.004;2023-06-14T11:51:42;4.10;;;3.80;;
3259;SDS011;68938;48.150;14.004;2023-06-14T11:54:09;4.03;;;3.73;;
3259;SDS011;68938;48.150;14.004;2023-06-14T11:56:37;4.03;;;3.50;;
3259;SDS011;68938;48.150;14.004;2023-06-14T11:59:04;3.93;;;3.73;;
3259;SDS011;68938;48.150;14.004;2023-06-14T12:01:31;3.77;;;3.57;;
3259;SDS011;68938;48.150;14.004;2023-06-14T12:03:59;4.07;;;3.87;;
3259;SDS011;68938;48.150;14.004;2023-06-14T12:06:26;3.23;;;3.13;;
3259;SDS011;68938;48.150;14.004;2023-06-14T12:08:56;5.10;;;4.40;;
3259;SDS011;68938;48.150;14.004;2023-06-14T12:11:23;4.30;;;3.90;;
3259;SDS011;68938;48.150;14.004;2023-06-14T12:14:02;5.00;;;4.03;;
3259;SDS011;68938;48.150;14.004;2023-06-14T12:16:32;3.50;;;3.30;;
3259;SDS011;68938;48.150;14.004;2023-06-14T12:19:15;4.10;;;3.80;;
3259;SDS011;68938;48.150;14.004;2023-06-14T12:21:47;4.03;;;3.70;;
3259;SDS011;68938;48.150;14.004;2023-06-14T12:24:14;3.60;;;3.40;;
3259;SDS011;68938;48.150;14.004;2023-06-14T12:26:41;4.37;;;4.07;;
3259;SDS011;68938;48.150;14.004;2023-06-14T12:29:09;3.90;;;3.70;;
3259;SDS011;68938;48.150;14.004;2023-06-14T12:31:36;4.23;;;3.93;;
3259;SDS011;68938;48.150;14.004;2023-06-14T12:34:03;3.50;;;3.17;;
3259;SDS011;68938;48.150;14.004;2023-06-14T12:36:30;3.63;;;3.43;;
3259;SDS011;68938;48.150;14.004;2023-06-14T12:38:57;3.70;;;3.40;;
3259;SDS011;68938;48.150;14.004;2023-06-14T12:41:24;3.67;;;3.47;;
3259;SDS011;68938;48.150;14.004;2023-06-14T12:43:51;3.90;;;3.63;;
3259;SDS011;68938;48.150;14.004;2023-06-14T12:46:18;3.80;;;3.60;;
3259;SDS011;68938;48.150;14.004;2023-06-14T12:48:45;4.40;;;3.93;;
3259;SDS011;68938;48.150;14.004;2023-06-14T12:51:12;4.20;;;4.00;;
3259;SDS011;68938;48.150;14.004;2023-06-14T12:53:39;3.90;;;3.70;;
3259;SDS011;68938;48.150;14.004;2023-06-14T12:56:06;4.33;;;3.53;;
3259;SDS011;68938;48.150;14.004;2023-06-14T12:58:33;3.90;;;3.70;;
3259;SDS011;68938;48.150;14.004;2023-06-14T13:01:00;4.50;;;4.10;;
3259;SDS011;68938;48.150;14.004;2023-06-14T13:03:27;4.33;;;3.97;;
3259;SDS011;68938;48.150;14.004;2023-06-14T13:05:54;5.60;;;4.07;;
3259;SDS011;68938;48.150;14.004;2023-06-14T13:08:21;4.47;;;4.17;;
3259;SDS011;68938;48.150;14.004;2023-06-14T13:10:51;5.20;;;4.00;;
3259;SDS011;68938;48.150;14.004;2023-06-14T13:13:18;4.40;;;4.10;;
3259;SDS011;68938;48.150;14.004;2023-06-14T13:15:45;3.83;;;3.63;;
3259;SDS011;68938;48.150;14.004;2023-06-14T13:18:12;3.73;;;3.63;;
3259;SDS011;68938;48.150;14.004;2023-06-14T13:20:39;4.80;;;4.43;;
3259;SDS011;68938;48.150;14.004;2023-06-14T13:23:06;3.57;;;3.47;;
3259;SDS011;68938;48.150;14.004;2023-06-14T13:25:34;4.43;;;4.13;;
3259;SDS011;68938;48.150;14.004;2023-06-14T13:28:05;5.73;;;3.50;;
3259;SDS011;68938;48.150;14.004;2023-06-14T13:30:33;6.03;;;4.53;;
3259;SDS011;68938;48.150;14.004;2023-06-14T13:33:00;6.97;;;3.57;;
3259;SDS011;68938;48.150;14.004;2023-06-14T13:35:28;5.30;;;4.10;;
3259;SDS011;68938;48.150;14.004;2023-06-14T13:37:55;4.60;;;4.30;;
3259;SDS011;68938;48.150;14.004;2023-06-14T13:40:22;5.27;;;3.60;;
3259;SDS011;68938;48.150;14.004;2023-06-14T13:42:49;4.33;;;4.00;;
3259;SDS011;68938;48.150;14.004;2023-06-14T13:45:15;3.80;;;3.50;;
3259;SDS011;68938;48.150;14.004;2023-06-14T13:47:43;5.37;;;3.97;;
3259;SDS011;68938;48.150;14.004;2023-06-14T13:50:10;3.90;;;3.60;;
3259;SDS011;68938;48.150;14.004;2023-06-14T13:52:37;6.03;;;3.70;;
3259;SDS011;68938;48.150;14.004;2023-06-14T13:55:04;4.30;;;3.60;;
3259;SDS011;68938;48.150;14.004;2023-06-14T13:57:31;3.77;;;3.57;;
3259;SDS011;68938;48.150;14.004;2023-06-14T13:59:58;3.00;;;2.80;;
3259;SDS011;68938;48.150;14.004;2023-06-14T14:02:25;3.70;;;3.50;;
3259;SDS011;68938;48.150;14.004;2023-06-14T14:04:52;4.03;;;3.73;;
3259;SDS011;68938;48.150;14.004;2023-06-14T14:07:20;5.60;;;3.60;;
3259;SDS011;68938;48.150;14.004;2023-06-14T14:09:47;6.17;;;3.50;;
3259;SDS011;68938;48.150;14.004;2023-06-14T14:12:14;3.37;;;3.17;;
3259;SDS011;68938;48.150;14.004;2023-06-14T14:14:41;3.37;;;3.03;;
3259;SDS011;68938;48.150;14.004;2023-06-14T14:17:08;4.03;;;3.53;;
3259;SDS011;68938;48.150;14.004;2023-06-14T14:19:35;4.10;;;3.20;;
3259;SDS011;68938;48.150;14.004;2023-06-14T14:22:02;3.53;;;3.23;;
3259;SDS011;68938;48.150;14.004;2023-06-14T14:24:29;3.67;;;3.47;;
3259;SDS011;68938;48.150;14.004;2023-06-14T14:26:56;3.83;;;3.63;;
3259;SDS011;68938;48.150;14.004;2023-06-14T14:29:23;3.60;;;3.30;;
3259;SDS011;68938;48.150;14.004;2023-06-14T14:31:53;3.80;;;3.50;;
3259;SDS011;68938;48.150;14.004;2023-06-14T14:34:20;3.80;;;3.53;;
3259;SDS011;68938;48.150;14.004;2023-06-14T14:36:47;3.33;;;3.13;;
3259;SDS011;68938;48.150;14.004;2023-06-14T14:39:14;4.10;;;3.67;;
3259;SDS011;68938;48.150;14.004;2023-06-14T14:41:41;3.30;;;3.10;;
3259;SDS011;68938;48.150;14.004;2023-06-14T14:44:08;3.33;;;3.13;;
3259;SDS011;68938;48.150;14.004;2023-06-14T14:46:35;3.77;;;3.53;;
3259;SDS011;68938;48.150;14.004;2023-06-14T14:49:02;3.70;;;3.40;;
3259;SDS011;68938;48.150;14.004;2023-06-14T14:51:29;3.40;;;3.30;;
3259;SDS011;68938;48.150;14.004;2023-06-14T14:53:56;4.93;;;3.70;;
3259;SDS011;68938;48.150;14.004;2023-06-14T14:56:23;3.57;;;3.27;;
3259;SDS011;68938;48.150;14.004;2023-06-14T14:58:50;3.90;;;3.40;;
3259;SDS011;68938;48.150;14.004;2023-06-14T15:01:16;3.53;;;3.33;;
3259;SDS011;68938;48.150;14.004;2023-06-14T15:03:43;4.40;;;4.10;;
3259;SDS011;68938;48.150;14.004;2023-06-14T15:06:24;4.13;;;3.80;;
3259;SDS011;68938;48.150;14.004;2023-06-14T15:08:51;3.90;;;3.60;;
3259;SDS011;68938;48.150;14.004;2023-06-14T15:11:18;4.07;;;3.87;;
3259;SDS011;68938;48.150;14.004;2023-06-14T15:13:46;4.13;;;3.73;;
3259;SDS011;68938;48.150;14.004;2023-06-14T15:16:14;7.03;;;3.87;;
3259;SDS011;68938;48.150;14.004;2023-06-14T15:18:41;5.03;;;4.40;;
3259;SDS011;68938;48.150;14.004;2023-06-14T15:21:08;3.80;;;3.60;;
3259;SDS011;68938;48.150;14.004;2023-06-14T15:23:35;3.80;;;3.50;;
3259;SDS011;68938;48.150;14.004;2023-06-14T15:26:02;3.70;;;3.40;;